createdAt,value
2018-06-13T00:00:50.817Z,1005.36
2018-06-13T00:01:50.670Z,1005.36
2018-06-13T00:02:50.594Z,1005.39
2018-06-13T00:03:50.525Z,1005.42
2018-06-13T00:04:50.444Z,1005.41
2018-06-13T00:05:50.357Z,1005.39
2018-06-13T00:06:50.283Z,1005.37
2018-06-13T00:07:50.207Z,1005.42
2018-06-13T00:08:50.121Z,1005.46
2018-06-13T00:09:50.047Z,1005.42
2018-06-13T00:10:49.971Z,1005.42
2018-06-13T00:11:49.897Z,1005.44
2018-06-13T00:12:49.807Z,1005.45
2018-06-13T00:13:49.734Z,1005.43
2018-06-13T00:14:49.657Z,1005.41
2018-06-13T00:15:49.583Z,1005.42
2018-06-13T00:16:49.497Z,1005.40
2018-06-13T00:17:49.420Z,1005.36
2018-06-13T00:18:49.338Z,1005.34
2018-06-13T00:19:49.259Z,1005.30
2018-06-13T00:20:49.185Z,1005.35
2018-06-13T00:21:49.111Z,1005.35
2018-06-13T00:22:49.022Z,1005.32
2018-06-13T00:23:48.947Z,1005.36
2018-06-13T00:24:48.873Z,1005.40
2018-06-13T00:25:48.785Z,1005.37
2018-06-13T00:26:48.722Z,1005.35
2018-06-13T00:27:48.635Z,1005.35
2018-06-13T00:28:48.561Z,1005.35
2018-06-13T00:29:48.484Z,1005.36
2018-06-13T00:30:48.399Z,1005.38
2018-06-13T00:31:48.323Z,1005.36
2018-06-13T00:32:48.237Z,1005.35
2018-06-13T00:33:48.163Z,1005.36
2018-06-13T00:34:48.088Z,1005.38
2018-06-13T00:35:48.010Z,1005.36
2018-06-13T00:36:47.930Z,1005.39
2018-06-13T00:37:47.849Z,1005.38
2018-06-13T00:38:47.774Z,1005.38
2018-06-13T00:39:47.687Z,1005.40
2018-06-13T00:40:47.612Z,1005.41
2018-06-13T00:41:47.536Z,1005.43
2018-06-13T00:42:47.450Z,1005.39
2018-06-13T00:43:47.375Z,1005.40
2018-06-13T00:44:47.304Z,1005.39
2018-06-13T00:45:47.214Z,1005.38
2018-06-13T00:46:47.137Z,1005.36
2018-06-13T00:47:47.074Z,1005.34
2018-06-13T00:48:46.988Z,1005.38
2018-06-13T00:49:46.900Z,1005.37
2018-06-13T00:50:46.825Z,1005.38
2018-06-13T00:51:46.750Z,1005.36
2018-06-13T00:52:46.675Z,1005.37
2018-06-13T00:53:46.587Z,1005.35
2018-06-13T00:54:46.513Z,1005.36
2018-06-13T00:55:46.428Z,1005.33
2018-06-13T00:56:46.351Z,1005.32
2018-06-13T00:57:46.277Z,1005.36
2018-06-13T00:58:46.201Z,1005.33
2018-06-13T00:59:46.113Z,1005.34
2018-06-13T01:00:46.040Z,1005.36
2018-06-13T01:01:45.963Z,1005.32
2018-06-13T01:02:45.876Z,1005.31
2018-06-13T01:03:45.802Z,1005.25
2018-06-13T01:04:45.715Z,1005.27
2018-06-13T01:05:45.639Z,1005.28
2018-06-13T01:06:45.564Z,1005.30
2018-06-13T01:07:45.488Z,1005.29
2018-06-13T01:08:45.404Z,1005.29
2018-06-13T01:09:45.327Z,1005.29
2018-06-13T01:10:45.253Z,1005.28
2018-06-13T01:11:45.165Z,1005.28
2018-06-13T01:12:45.090Z,1005.31
2018-06-13T01:13:45.015Z,1005.28
2018-06-13T01:14:44.928Z,1005.28
2018-06-13T01:15:44.853Z,1005.28
2018-06-13T01:16:44.780Z,1005.27
2018-06-13T01:17:44.689Z,1005.25
2018-06-13T01:18:44.615Z,1005.26
2018-06-13T01:19:44.540Z,1005.28
2018-06-13T01:20:44.454Z,1005.26
2018-06-13T01:21:44.379Z,1005.25
2018-06-13T01:22:44.303Z,1005.26
2018-06-13T01:23:44.216Z,1005.26
2018-06-13T01:24:44.141Z,1005.24
2018-06-13T01:25:44.066Z,1005.22
2018-06-13T01:26:43.980Z,1005.20
2018-06-13T01:27:43.904Z,1005.22
2018-06-13T01:28:43.828Z,1005.19
2018-06-13T01:29:43.754Z,1005.17
2018-06-13T01:30:43.666Z,1005.18
2018-06-13T01:31:43.593Z,1005.19
2018-06-13T01:32:43.505Z,1005.17
2018-06-13T01:33:43.429Z,1005.15
2018-06-13T01:34:43.355Z,1005.13
2018-06-13T01:35:43.267Z,1005.14
2018-06-13T01:36:43.191Z,1005.12
2018-06-13T01:37:43.118Z,1005.14
2018-06-13T01:38:43.033Z,1005.10
2018-06-13T01:39:43.209Z,1005.11
2018-06-13T01:40:42.883Z,1005.10
2018-06-13T01:41:42.792Z,1005.14
2018-06-13T01:42:42.717Z,1005.09
2018-06-13T01:43:42.657Z,1005.18
2018-06-13T01:44:42.856Z,1005.18
2018-06-13T01:45:42.484Z,1005.16
2018-06-13T01:46:42.407Z,1005.18
2018-06-13T01:47:42.318Z,1005.21
2018-06-13T01:48:42.293Z,1005.24
2018-06-13T01:49:42.168Z,1005.22
2018-06-13T01:50:42.081Z,1005.18
2018-06-13T01:51:42.008Z,1005.19
2018-06-13T01:52:41.931Z,1005.13
2018-06-13T01:53:41.843Z,1005.12
2018-06-13T01:54:41.770Z,1005.15
2018-06-13T01:55:41.694Z,1005.12
2018-06-13T01:56:41.607Z,1005.09
2018-06-13T01:57:41.533Z,1005.12
2018-06-13T01:58:41.458Z,1005.11
2018-06-13T01:59:41.384Z,1005.12
2018-06-13T02:00:41.294Z,1005.10
2018-06-13T02:01:41.219Z,1005.12
2018-06-13T02:02:41.148Z,1005.09
2018-06-13T02:03:41.058Z,1005.15
2018-06-13T02:04:40.973Z,1005.18
2018-06-13T02:05:40.895Z,1005.15
2018-06-13T02:06:40.821Z,1005.18
2018-06-13T02:07:40.745Z,1005.15
2018-06-13T02:08:40.661Z,1005.21
2018-06-13T02:09:40.584Z,1005.20
2018-06-13T02:10:40.497Z,1005.17
2018-06-13T02:11:40.422Z,1005.22
2018-06-13T02:12:40.346Z,1005.21
2018-06-13T02:13:40.265Z,1005.21
2018-06-13T02:14:40.185Z,1005.19
2018-06-13T02:15:40.111Z,1005.16
2018-06-13T02:16:40.035Z,1005.16
2018-06-13T02:17:39.946Z,1005.17
2018-06-13T02:18:39.871Z,1005.16
2018-06-13T02:19:40.085Z,1005.16
2018-06-13T02:20:39.709Z,1005.19
2018-06-13T02:21:39.635Z,1005.18
2018-06-13T02:22:39.547Z,1005.18
2018-06-13T02:23:39.472Z,1005.14
2018-06-13T02:24:39.397Z,1005.17
2018-06-13T02:25:39.311Z,1005.13
2018-06-13T02:26:39.283Z,1005.12
2018-06-13T02:27:39.161Z,1005.12
2018-06-13T02:28:39.088Z,1005.11
2018-06-13T02:29:38.998Z,1005.10
2018-06-13T02:30:38.923Z,1005.06
2018-06-13T02:31:38.842Z,1005.09
2018-06-13T02:32:38.762Z,1005.09
2018-06-13T02:33:38.674Z,1005.12
2018-06-13T02:34:38.598Z,1005.14
2018-06-13T02:35:38.524Z,1005.13
2018-06-13T02:36:38.437Z,1005.14
2018-06-13T02:37:38.362Z,1005.16
2018-06-13T02:38:38.287Z,1005.15
2018-06-13T02:39:38.200Z,1005.21
2018-06-13T02:40:38.124Z,1005.18
2018-06-13T02:41:38.050Z,1005.20
2018-06-13T02:42:37.963Z,1005.19
2018-06-13T02:43:37.888Z,1005.20
2018-06-13T02:44:37.802Z,1005.20
2018-06-13T02:45:37.725Z,1005.23
2018-06-13T02:46:37.650Z,1005.24
2018-06-13T02:47:37.563Z,1005.23
2018-06-13T02:48:37.489Z,1005.23
2018-06-13T02:49:37.413Z,1005.23
2018-06-13T02:50:37.326Z,1005.26
2018-06-13T02:51:37.250Z,1005.24
2018-06-13T02:52:37.175Z,1005.23
2018-06-13T02:53:37.090Z,1005.20
2018-06-13T02:54:37.013Z,1005.20
2018-06-13T02:55:36.940Z,1005.21
2018-06-13T02:56:36.851Z,1005.22
2018-06-13T02:57:36.781Z,1005.22
2018-06-13T02:58:36.720Z,1005.25
2018-06-13T02:59:36.615Z,1005.25
2018-06-13T03:00:36.540Z,1005.29
2018-06-13T03:01:36.453Z,1005.30
2018-06-13T03:02:36.380Z,1005.32
2018-06-13T03:03:36.302Z,1005.28
2018-06-13T03:04:36.216Z,1005.33
2018-06-13T03:05:36.141Z,1005.35
2018-06-13T03:06:36.066Z,1005.38
2018-06-13T03:07:35.979Z,1005.40
2018-06-13T03:08:35.902Z,1005.39
2018-06-13T03:09:35.828Z,1005.44
2018-06-13T03:10:35.742Z,1005.40
2018-06-13T03:11:35.667Z,1005.47
2018-06-13T03:12:35.590Z,1005.46
2018-06-13T03:13:35.502Z,1005.44
2018-06-13T03:14:35.432Z,1005.46
2018-06-13T03:15:35.353Z,1005.48
2018-06-13T03:16:35.267Z,1005.44
2018-06-13T03:17:35.192Z,1005.44
2018-06-13T03:18:35.105Z,1005.40
2018-06-13T03:19:35.029Z,1005.42
2018-06-13T03:20:34.953Z,1005.40
2018-06-13T03:21:34.868Z,1005.41
2018-06-13T03:22:34.791Z,1005.39
2018-06-13T03:23:34.718Z,1005.42
2018-06-13T03:24:34.629Z,1005.41
2018-06-13T03:25:34.554Z,1005.43
2018-06-13T03:26:34.479Z,1005.41
2018-06-13T03:27:34.392Z,1005.43
2018-06-13T03:28:34.319Z,1005.42
2018-06-13T03:29:34.233Z,1005.42
2018-06-13T03:30:34.155Z,1005.48
2018-06-13T03:31:34.082Z,1005.48
2018-06-13T03:32:33.993Z,1005.49
2018-06-13T03:33:33.919Z,1005.49
2018-06-13T03:34:33.843Z,1005.57
2018-06-13T03:35:33.756Z,1005.56
2018-06-13T03:36:33.681Z,1005.58
2018-06-13T03:37:33.606Z,1005.59
2018-06-13T03:38:33.520Z,1005.58
2018-06-13T03:39:33.445Z,1005.60
2018-06-13T03:40:33.370Z,1005.58
2018-06-13T03:41:33.282Z,1005.65
2018-06-13T03:42:33.206Z,1005.65
2018-06-13T03:43:33.132Z,1005.64
2018-06-13T03:44:33.045Z,1005.65
2018-06-13T03:45:32.972Z,1005.63
2018-06-13T03:46:32.900Z,1005.66
2018-06-13T03:47:32.811Z,1005.62
2018-06-13T03:48:32.732Z,1005.63
2018-06-13T03:49:32.653Z,1005.67
2018-06-13T03:50:32.570Z,1005.69
2018-06-13T03:51:32.495Z,1005.72
2018-06-13T03:52:32.408Z,1005.68
2018-06-13T03:53:32.338Z,1005.71
2018-06-13T03:54:32.258Z,1005.72
2018-06-13T03:55:32.175Z,1005.68
2018-06-13T03:56:32.097Z,1005.67
2018-06-13T03:57:32.022Z,1005.67
2018-06-13T03:58:31.946Z,1005.67
2018-06-13T03:59:31.858Z,1005.69
2018-06-13T04:00:31.783Z,1005.68
2018-06-13T04:01:31.696Z,1005.66
2018-06-13T04:02:31.623Z,1005.65
2018-06-13T04:03:31.548Z,1005.65
2018-06-13T04:04:31.459Z,1005.65
2018-06-13T04:05:31.385Z,1005.60
2018-06-13T04:06:31.310Z,1005.64
2018-06-13T04:07:31.224Z,1005.62
2018-06-13T04:08:31.148Z,1005.61
2018-06-13T04:09:31.061Z,1005.63
2018-06-13T04:10:30.985Z,1005.65
2018-06-13T04:11:30.911Z,1005.63
2018-06-13T04:12:30.824Z,1005.62
2018-06-13T04:13:30.749Z,1005.61
2018-06-13T04:14:30.674Z,1005.60
2018-06-13T04:15:30.586Z,1005.62
2018-06-13T04:16:30.524Z,1005.58
2018-06-13T04:17:30.435Z,1005.62
2018-06-13T04:18:30.349Z,1005.65
2018-06-13T04:19:30.274Z,1005.60
2018-06-13T04:20:30.199Z,1005.64
2018-06-13T04:21:30.112Z,1005.58
2018-06-13T04:22:30.101Z,1005.58
2018-06-13T04:23:29.962Z,1005.61
2018-06-13T04:24:29.875Z,1005.62
2018-06-13T04:25:29.800Z,1005.66
2018-06-13T04:26:29.725Z,1005.67
2018-06-13T04:27:29.637Z,1005.67
2018-06-13T04:28:29.575Z,1005.74
2018-06-13T04:29:29.489Z,1005.70
2018-06-13T04:30:29.408Z,1005.70
2018-06-13T04:31:29.326Z,1005.71
2018-06-13T04:32:29.239Z,1005.71
2018-06-13T04:33:29.164Z,1005.73
2018-06-13T04:34:29.088Z,1005.69
2018-06-13T04:35:29.003Z,1005.72
2018-06-13T04:36:28.927Z,1005.69
2018-06-13T04:37:28.851Z,1005.65
2018-06-13T04:38:28.776Z,1005.63
2018-06-13T04:39:28.688Z,1005.65
2018-06-13T04:40:28.614Z,1005.63
2018-06-13T04:41:28.526Z,1005.66
2018-06-13T04:42:28.451Z,1005.65
2018-06-13T04:43:28.377Z,1005.65
2018-06-13T04:44:28.301Z,1005.69
2018-06-13T04:45:28.213Z,1005.63
2018-06-13T04:46:28.138Z,1005.65
2018-06-13T04:47:28.053Z,1005.65
2018-06-13T04:48:27.977Z,1005.66
2018-06-13T04:49:27.902Z,1005.66
2018-06-13T04:50:27.814Z,1005.65
2018-06-13T04:51:27.739Z,1005.70
2018-06-13T04:52:27.664Z,1005.67
2018-06-13T04:53:27.578Z,1005.69
2018-06-13T04:54:27.503Z,1005.71
2018-06-13T04:55:27.428Z,1005.70
2018-06-13T04:56:27.340Z,1005.71
2018-06-13T04:57:27.264Z,1005.68
2018-06-13T04:58:27.190Z,1005.70
2018-06-13T04:59:27.104Z,1005.70
2018-06-13T05:00:27.029Z,1005.71
2018-06-13T05:01:26.953Z,1005.75
2018-06-13T05:02:26.865Z,1005.75
2018-06-13T05:03:26.791Z,1005.78
2018-06-13T05:04:26.965Z,1005.79
2018-06-13T05:05:26.630Z,1005.81
2018-06-13T05:06:26.566Z,1005.86
2018-06-13T05:07:26.480Z,1005.84
2018-06-13T05:08:26.393Z,1005.86
2018-06-13T05:09:26.316Z,1005.88
2018-06-13T05:10:26.241Z,1005.87
2018-06-13T05:11:26.157Z,1005.89
2018-06-13T05:12:26.080Z,1005.90
2018-06-13T05:13:26.006Z,1005.89
2018-06-13T05:14:25.917Z,1005.88
2018-06-13T05:15:25.842Z,1005.88
2018-06-13T05:16:25.767Z,1005.87
2018-06-13T05:17:25.690Z,1005.87
2018-06-13T05:18:25.606Z,1005.93
2018-06-13T05:19:25.785Z,1005.91
2018-06-13T05:20:25.456Z,1005.94
2018-06-13T05:21:25.367Z,1005.99
2018-06-13T05:22:25.294Z,1006.00
2018-06-13T05:23:25.206Z,1006.02
2018-06-13T05:24:25.132Z,1006.01
2018-06-13T05:25:25.057Z,1006.04
2018-06-13T05:26:24.970Z,1006.01
2018-06-13T05:27:24.896Z,1006.08
2018-06-13T05:28:24.821Z,1006.03
2018-06-13T05:29:24.744Z,1006.01
2018-06-13T05:30:24.657Z,1006.05
2018-06-13T05:31:24.582Z,1006.01
2018-06-13T05:32:24.494Z,1006.03
2018-06-13T05:33:24.418Z,1006.04
2018-06-13T05:34:24.380Z,1006.01
2018-06-13T05:35:24.282Z,1006.04
2018-06-13T05:36:24.185Z,1006.05
2018-06-13T05:37:24.109Z,1006.04
2018-06-13T05:38:24.021Z,1006.06
2018-06-13T05:39:23.948Z,1006.05
2018-06-13T05:40:23.870Z,1006.07
2018-06-13T05:41:23.783Z,1006.06
2018-06-13T05:42:23.711Z,1006.07
2018-06-13T05:43:23.637Z,1006.09
2018-06-13T05:44:23.845Z,1006.07
2018-06-13T05:45:23.471Z,1006.11
2018-06-13T05:46:23.395Z,1006.08
2018-06-13T05:47:23.309Z,1006.14
2018-06-13T05:48:23.234Z,1006.13
2018-06-13T05:49:23.160Z,1006.13
2018-06-13T05:50:23.071Z,1006.14
2018-06-13T05:51:22.996Z,1006.17
2018-06-13T05:52:22.922Z,1006.16
2018-06-13T05:53:22.834Z,1006.16
2018-06-13T05:54:22.760Z,1006.23
2018-06-13T05:55:22.685Z,1006.16
2018-06-13T05:56:22.600Z,1006.21
2018-06-13T05:57:22.523Z,1006.18
2018-06-13T05:58:22.447Z,1006.25
2018-06-13T05:59:22.361Z,1006.24
2018-06-13T06:00:22.287Z,1006.20
2018-06-13T06:01:22.261Z,1006.23
2018-06-13T06:02:22.123Z,1006.21
2018-06-13T06:03:22.047Z,1006.21
2018-06-13T06:04:21.972Z,1006.20
2018-06-13T06:05:21.886Z,1006.22
2018-06-13T06:06:21.811Z,1006.24
2018-06-13T06:07:21.736Z,1006.24
2018-06-13T06:08:21.650Z,1006.30
2018-06-13T06:09:21.573Z,1006.29
2018-06-13T06:10:21.579Z,1006.31
2018-06-13T06:11:21.412Z,1006.31
2018-06-13T06:12:21.337Z,1006.32
2018-06-13T06:13:21.262Z,1006.34
2018-06-13T06:14:21.173Z,1006.36
2018-06-13T06:15:21.099Z,1006.35
2018-06-13T06:16:21.026Z,1006.39
2018-06-13T06:17:20.941Z,1006.36
2018-06-13T06:18:20.908Z,1006.35
2018-06-13T06:19:20.788Z,1006.30
2018-06-13T06:20:20.701Z,1006.29
2018-06-13T06:21:20.626Z,1006.31
2018-06-13T06:22:20.604Z,1006.33
2018-06-13T06:23:20.466Z,1006.28
2018-06-13T06:24:20.391Z,1006.27
2018-06-13T06:25:20.317Z,1006.22
2018-06-13T06:26:20.226Z,1006.26
2018-06-13T06:27:20.151Z,1006.26
2018-06-13T06:28:20.076Z,1006.25
2018-06-13T06:29:19.989Z,1006.28
2018-06-13T06:30:19.913Z,1006.26
2018-06-13T06:31:19.843Z,1006.30
2018-06-13T06:32:19.751Z,1006.35
2018-06-13T06:33:19.676Z,1006.30
2018-06-13T06:34:19.615Z,1006.34
2018-06-13T06:35:19.516Z,1006.34
2018-06-13T06:36:19.441Z,1006.34
2018-06-13T06:37:19.354Z,1006.33
2018-06-13T06:38:19.276Z,1006.35
2018-06-13T06:39:19.203Z,1006.35
2018-06-13T06:40:19.127Z,1006.35
2018-06-13T06:41:19.044Z,1006.33
2018-06-13T06:42:18.966Z,1006.36
2018-06-13T06:43:18.891Z,1006.35
2018-06-13T06:44:18.802Z,1006.31
2018-06-13T06:45:18.745Z,1006.33
2018-06-13T06:46:18.653Z,1006.30
2018-06-13T06:47:18.566Z,1006.31
2018-06-13T06:48:18.503Z,1006.29
2018-06-13T06:49:18.417Z,1006.30
2018-06-13T06:50:18.328Z,1006.31
2018-06-13T06:51:18.253Z,1006.33
2018-06-13T06:52:18.186Z,1006.31
2018-06-13T06:53:18.093Z,1006.30
2018-06-13T06:54:18.017Z,1006.24
2018-06-13T06:55:17.946Z,1006.30
2018-06-13T06:56:17.856Z,1006.31
2018-06-13T06:57:17.779Z,1006.32
2018-06-13T06:58:17.704Z,1006.34
2018-06-13T06:59:17.879Z,1006.34
2018-06-13T07:00:17.543Z,1006.31
2018-06-13T07:01:17.468Z,1006.27
2018-06-13T07:02:17.393Z,1006.28
2018-06-13T07:03:17.306Z,1006.28
2018-06-13T07:04:17.230Z,1006.28
2018-06-13T07:05:17.156Z,1006.31
2018-06-13T07:06:17.081Z,1006.28
2018-06-13T07:07:16.994Z,1006.27
2018-06-13T07:08:16.919Z,1006.26
2018-06-13T07:09:16.844Z,1006.21
2018-06-13T07:10:16.756Z,1006.22
2018-06-13T07:11:16.680Z,1006.16
2018-06-13T07:12:16.606Z,1006.12
2018-06-13T07:13:16.546Z,1006.14
2018-06-13T07:14:16.445Z,1006.11
2018-06-13T07:15:16.371Z,1006.06
2018-06-13T07:16:16.294Z,1006.04
2018-06-13T07:17:16.208Z,1006.01
2018-06-13T07:18:16.131Z,1006.09
2018-06-13T07:19:16.307Z,1006.06
2018-06-13T07:20:15.982Z,1006.03
2018-06-13T07:21:15.896Z,1006.04
2018-06-13T07:22:15.826Z,1006.01
2018-06-13T07:23:15.746Z,1005.99
2018-06-13T07:24:15.671Z,1006.05
2018-06-13T07:25:15.595Z,1006.03
2018-06-13T07:26:15.515Z,1006.05
2018-06-13T07:27:15.432Z,1006.07
2018-06-13T07:28:15.358Z,1006.04
2018-06-13T07:29:15.283Z,1006.04
2018-06-13T07:30:15.198Z,1006.08
2018-06-13T07:31:15.122Z,1006.08
2018-06-13T07:32:15.050Z,1006.09
2018-06-13T07:33:14.978Z,1006.10
2018-06-13T07:34:14.885Z,1006.13
2018-06-13T07:35:14.821Z,1006.08
2018-06-13T07:36:14.736Z,1006.10
2018-06-13T07:37:14.660Z,1006.06
2018-06-13T07:38:14.588Z,1006.07
2018-06-13T07:39:14.760Z,1006.03
2018-06-13T07:40:14.423Z,1006.02
2018-06-13T07:41:14.348Z,1006.00
2018-06-13T07:42:14.273Z,1006.01
2018-06-13T07:43:14.205Z,1006.06
2018-06-13T07:44:14.123Z,1006.03
2018-06-13T07:45:14.037Z,1005.97
2018-06-13T07:46:13.960Z,1006.01
2018-06-13T07:47:13.885Z,1006.00
2018-06-13T07:48:13.810Z,1006.01
2018-06-13T07:49:13.735Z,1006.06
2018-06-13T07:50:13.675Z,1006.05
2018-06-13T07:51:13.587Z,1006.02
2018-06-13T07:52:13.511Z,1006.02
2018-06-13T07:53:13.435Z,1005.99
2018-06-13T07:54:13.349Z,1006.02
2018-06-13T07:55:13.300Z,1006.07
2018-06-13T07:56:13.203Z,1006.09
2018-06-13T07:57:13.125Z,1006.08
2018-06-13T07:58:13.049Z,1006.05
2018-06-13T07:59:12.974Z,1006.06
2018-06-13T08:00:12.903Z,1006.09
2018-06-13T08:01:12.825Z,1006.04
2018-06-13T08:02:12.750Z,1006.09
2018-06-13T08:03:12.662Z,1006.04
2018-06-13T08:04:12.588Z,1006.01
2018-06-13T08:05:12.513Z,1006.04
2018-06-13T08:06:12.437Z,1006.04
2018-06-13T08:07:12.363Z,1006.07
2018-06-13T08:08:12.301Z,1006.09
2018-06-13T08:09:12.213Z,1006.07
2018-06-13T08:10:12.140Z,1006.07
2018-06-13T08:11:12.063Z,1006.14
2018-06-13T08:12:11.976Z,1006.13
2018-06-13T08:13:11.900Z,1006.18
2018-06-13T08:14:11.827Z,1006.12
2018-06-13T08:15:11.763Z,1006.14
2018-06-13T08:16:11.676Z,1006.13
2018-06-13T08:17:11.603Z,1006.16
2018-06-13T08:18:11.527Z,1006.19
2018-06-13T08:19:11.452Z,1006.11
2018-06-13T08:20:11.377Z,1006.14
2018-06-13T08:21:11.310Z,1006.13
2018-06-13T08:22:11.227Z,1006.23
2018-06-13T08:23:11.153Z,1006.29
2018-06-13T08:24:11.083Z,1006.33
2018-06-13T08:25:11.003Z,1006.34
2018-06-13T08:26:10.934Z,1006.33
2018-06-13T08:27:10.853Z,1006.32
2018-06-13T08:28:10.780Z,1006.20
2018-06-13T08:29:10.705Z,1006.22
2018-06-13T08:30:10.629Z,1006.24
2018-06-13T08:31:10.553Z,1006.25
2018-06-13T08:32:10.479Z,1006.29
2018-06-13T08:33:10.404Z,1006.27
2018-06-13T08:34:10.329Z,1006.33
2018-06-13T08:35:10.254Z,1006.27
2018-06-13T08:36:10.179Z,1006.32
2018-06-13T08:37:10.104Z,1006.35
2018-06-13T08:38:10.040Z,1006.33
2018-06-13T08:39:10.205Z,1006.29
2018-06-13T08:40:09.893Z,1006.32
2018-06-13T08:41:09.805Z,1006.28
2018-06-13T08:42:09.741Z,1006.33
2018-06-13T08:43:09.655Z,1006.36
2018-06-13T08:44:09.580Z,1006.33
2018-06-13T08:45:09.505Z,1006.29
2018-06-13T08:46:09.430Z,1006.33
2018-06-13T08:47:09.355Z,1006.37
2018-06-13T08:48:09.280Z,1006.32
2018-06-13T08:49:09.206Z,1006.33
2018-06-13T08:50:09.131Z,1006.31
2018-06-13T08:51:09.062Z,1006.34
2018-06-13T08:52:08.980Z,1006.33
2018-06-13T08:53:08.906Z,1006.32
2018-06-13T08:54:08.839Z,1006.32
2018-06-13T08:55:08.759Z,1006.35
2018-06-13T08:56:08.681Z,1006.31
2018-06-13T08:57:08.606Z,1006.28
2018-06-13T08:58:08.531Z,1006.33
2018-06-13T08:59:08.461Z,1006.39
2018-06-13T09:00:08.369Z,1006.32
2018-06-13T09:01:08.294Z,1006.31
2018-06-13T09:02:08.235Z,1006.26
2018-06-13T09:03:08.144Z,1006.32
2018-06-13T09:04:08.069Z,1006.29
2018-06-13T09:05:07.995Z,1006.31
2018-06-13T09:06:07.932Z,1006.30
2018-06-13T09:07:07.844Z,1006.32
2018-06-13T09:08:07.770Z,1006.32
2018-06-13T09:09:07.695Z,1006.31
2018-06-13T09:10:07.632Z,1006.32
2018-06-13T09:11:07.545Z,1006.31
2018-06-13T09:12:07.470Z,1006.41
2018-06-13T09:13:07.395Z,1006.34
2018-06-13T09:14:07.322Z,1006.36
2018-06-13T09:15:07.245Z,1006.37
2018-06-13T09:16:07.170Z,1006.39
2018-06-13T09:17:07.095Z,1006.37
2018-06-13T09:18:07.021Z,1006.38
2018-06-13T09:19:07.197Z,1006.40
2018-06-13T09:20:06.871Z,1006.36
2018-06-13T09:21:06.796Z,1006.40
2018-06-13T09:22:06.723Z,1006.42
2018-06-13T09:23:06.659Z,1006.40
2018-06-13T09:24:06.571Z,1006.42
2018-06-13T09:25:06.496Z,1006.38
2018-06-13T09:26:06.425Z,1006.46
2018-06-13T09:27:06.360Z,1006.47
2018-06-13T09:28:06.272Z,1006.47
2018-06-13T09:29:06.198Z,1006.47
2018-06-13T09:30:06.122Z,1006.42
2018-06-13T09:31:06.061Z,1006.44
2018-06-13T09:32:05.972Z,1006.41
2018-06-13T09:33:05.887Z,1006.40
2018-06-13T09:34:05.837Z,1006.43
2018-06-13T09:35:05.739Z,1006.42
2018-06-13T09:36:05.660Z,1006.38
2018-06-13T09:37:05.585Z,1006.40
2018-06-13T09:38:05.512Z,1006.42
2018-06-13T09:39:05.437Z,1006.38
2018-06-13T09:40:05.361Z,1006.42
2018-06-13T09:41:05.274Z,1006.40
2018-06-13T09:42:05.199Z,1006.44
2018-06-13T09:43:05.129Z,1006.43
2018-06-13T09:44:05.059Z,1006.42
2018-06-13T09:45:04.974Z,1006.43
2018-06-13T09:46:11.861Z,1006.46
2018-06-13T09:47:06.903Z,1006.46
2018-06-13T09:48:04.749Z,1006.47
2018-06-13T09:49:04.674Z,1006.41
2018-06-13T09:50:04.631Z,1006.44
2018-06-13T09:51:04.514Z,1006.46
2018-06-13T09:52:04.437Z,1006.55
2018-06-13T09:53:04.363Z,1006.46
2018-06-13T09:54:04.288Z,1006.47
2018-06-13T09:55:04.214Z,1006.42
2018-06-13T09:56:04.138Z,1006.43
2018-06-13T09:57:04.068Z,1006.45
2018-06-13T09:58:03.991Z,1006.41
2018-06-13T09:59:04.156Z,1006.40
2018-06-13T10:00:03.827Z,1006.40
2018-06-13T10:01:03.751Z,1006.41
2018-06-13T10:02:03.676Z,1006.39
2018-06-13T10:03:03.601Z,1006.37
2018-06-13T10:04:03.528Z,1006.43
2018-06-13T10:05:03.451Z,1006.45
2018-06-13T10:06:03.376Z,1006.41
2018-06-13T10:07:03.301Z,1006.46
2018-06-13T10:08:03.239Z,1006.39
2018-06-13T10:09:03.152Z,1006.44
2018-06-13T10:10:03.077Z,1006.46
2018-06-13T10:11:03.001Z,1006.46
2018-06-13T10:12:02.915Z,1006.50
2018-06-13T10:13:02.897Z,1006.43
2018-06-13T10:14:02.766Z,1006.46
2018-06-13T10:15:02.693Z,1006.43
2018-06-13T10:16:02.617Z,1006.49
2018-06-13T10:17:02.541Z,1006.50
2018-06-13T10:18:02.466Z,1006.53
2018-06-13T10:19:02.391Z,1006.49
2018-06-13T10:20:02.304Z,1006.50
2018-06-13T10:21:02.241Z,1006.53
2018-06-13T10:22:02.153Z,1006.51
2018-06-13T10:23:02.078Z,1006.56
2018-06-13T10:24:02.003Z,1006.53
2018-06-13T10:25:01.933Z,1006.56
2018-06-13T10:26:01.853Z,1006.60
2018-06-13T10:27:01.780Z,1006.57
2018-06-13T10:28:01.703Z,1006.59
2018-06-13T10:29:01.685Z,1006.58
2018-06-13T10:30:01.558Z,1006.60
2018-06-13T10:31:01.481Z,1006.61
2018-06-13T10:32:01.392Z,1006.63
2018-06-13T10:33:01.327Z,1006.62
2018-06-13T10:34:01.241Z,1006.62
2018-06-13T10:35:01.168Z,1006.63
2018-06-13T10:36:01.095Z,1006.62
2018-06-13T10:37:01.020Z,1006.60
2018-06-13T10:38:00.944Z,1006.55
2018-06-13T10:39:01.125Z,1006.58
2018-06-13T10:40:00.792Z,1006.62
2018-06-13T10:41:00.718Z,1006.56
2018-06-13T10:42:00.643Z,1006.52
2018-06-13T10:43:00.568Z,1006.57
2018-06-13T10:44:00.493Z,1006.64
2018-06-13T10:45:00.419Z,1006.68
2018-06-13T10:46:00.343Z,1006.72
2018-06-13T10:47:00.269Z,1006.71
2018-06-13T10:48:00.194Z,1006.68
2018-06-13T10:49:00.119Z,1006.67
2018-06-13T10:50:00.049Z,1006.73
2018-06-13T10:50:59.969Z,1006.75
2018-06-13T10:51:59.894Z,1006.71
2018-06-13T10:52:59.819Z,1006.75
2018-06-13T10:53:59.744Z,1006.66
2018-06-13T10:54:59.669Z,1006.68
2018-06-13T10:55:59.594Z,1006.75
2018-06-13T10:56:59.519Z,1006.73
2018-06-13T10:57:59.433Z,1006.74
2018-06-13T10:58:59.358Z,1006.81
2018-06-13T10:59:59.282Z,1006.77
2018-06-13T11:00:59.208Z,1006.77
2018-06-13T11:01:59.132Z,1006.77
2018-06-13T11:02:59.070Z,1006.81
2018-06-13T11:03:58.981Z,1006.79
2018-06-13T11:04:58.907Z,1006.80
2018-06-13T11:05:58.820Z,1006.82
2018-06-13T11:06:58.748Z,1006.79
2018-06-13T11:07:58.672Z,1006.86
2018-06-13T11:08:58.596Z,1006.82
2018-06-13T11:09:58.521Z,1006.80
2018-06-13T11:10:58.445Z,1006.81
2018-06-13T11:11:58.371Z,1006.80
2018-06-13T11:12:58.283Z,1006.80
2018-06-13T11:13:58.208Z,1006.80
2018-06-13T11:14:58.133Z,1006.72
2018-06-13T11:15:58.071Z,1006.77
2018-06-13T11:16:57.971Z,1006.75
2018-06-13T11:17:57.899Z,1006.75
2018-06-13T11:18:58.071Z,1006.79
2018-06-13T11:19:57.746Z,1006.80
2018-06-13T11:20:57.672Z,1006.76
2018-06-13T11:21:57.586Z,1006.82
2018-06-13T11:22:57.509Z,1006.83
2018-06-13T11:23:57.433Z,1006.85
2018-06-13T11:24:57.380Z,1006.82
2018-06-13T11:25:57.284Z,1006.86
2018-06-13T11:26:57.205Z,1006.88
2018-06-13T11:27:57.123Z,1006.90
2018-06-13T11:28:57.049Z,1006.90
2018-06-13T11:29:56.973Z,1006.91
2018-06-13T11:30:56.899Z,1006.92
2018-06-13T11:31:56.810Z,1006.91
2018-06-13T11:32:56.735Z,1006.94
2018-06-13T11:33:56.674Z,1006.85
2018-06-13T11:34:56.586Z,1006.89
2018-06-13T11:35:56.510Z,1006.88
2018-06-13T11:36:56.423Z,1006.91
2018-06-13T11:37:56.351Z,1006.93
2018-06-13T11:38:56.278Z,1006.89
2018-06-13T11:39:56.199Z,1006.89
2018-06-13T11:40:56.113Z,1006.91
2018-06-13T11:41:56.036Z,1006.95
2018-06-13T11:42:55.961Z,1006.88
2018-06-13T11:43:55.887Z,1006.88
2018-06-13T11:44:55.811Z,1006.89
2018-06-13T11:45:55.725Z,1006.91
2018-06-13T11:46:55.650Z,1006.87
2018-06-13T11:47:55.575Z,1006.93
2018-06-13T11:48:55.500Z,1006.89
2018-06-13T11:49:55.425Z,1006.88
2018-06-13T11:50:55.340Z,1006.87
2018-06-13T11:51:55.263Z,1006.95
2018-06-13T11:52:55.187Z,1006.85
2018-06-13T11:53:55.112Z,1006.90
2018-06-13T11:54:55.038Z,1006.85
2018-06-13T11:55:54.952Z,1006.89
2018-06-13T11:56:54.876Z,1006.85
2018-06-13T11:57:54.801Z,1006.89
2018-06-13T11:58:54.976Z,1006.89
2018-06-13T11:59:54.651Z,1006.86
2018-06-13T12:00:54.576Z,1006.83
2018-06-13T12:01:54.490Z,1006.84
2018-06-13T12:02:54.419Z,1006.86
2018-06-13T12:03:54.342Z,1006.88
2018-06-13T12:04:54.265Z,1006.91